sensor_id;sensor_type;location;lat;lon;timestamp;P1;durP1;ratioP1;P2;durP2;ratioP2
52668;SDS011;76842;52.786;6.892;2024-03-23T00:51:17;20.65;;;8.27;;
52668;SDS011;76842;52.786;6.892;2024-03-23T00:54:38;23.10;;;8.20;;
52668;SDS011;76842;52.786;6.892;2024-03-23T00:57:59;25.65;;;8.60;;
52668;SDS011;76842;52.786;6.892;2024-03-23T01:01:19;26.40;;;8.05;;
52668;SDS011;76842;52.786;6.892;2024-03-23T01:04:41;31.50;;;9.40;;
52668;SDS011;76842;52.786;6.892;2024-03-23T01:08:01;18.60;;;7.47;;
52668;SDS011;76842;52.786;6.892;2024-03-23T01:11:22;21.85;;;7.90;;
52668;SDS011;76842;52.786;6.892;2024-03-23T01:14:43;25.92;;;8.90;;
52668;SDS011;76842;52.786;6.892;2024-03-23T01:18:03;21.80;;;9.27;;
52668;SDS011;76842;52.786;6.892;2024-03-23T01:21:24;32.70;;;9.63;;
52668;SDS011;76842;52.786;6.892;2024-03-23T01:24:45;28.33;;;8.07;;
52668;SDS011;76842;52.786;6.892;2024-03-23T01:28:06;36.53;;;7.95;;
52668;SDS011;76842;52.786;6.892;2024-03-23T01:31:26;28.58;;;8.70;;
52668;SDS011;76842;52.786;6.892;2024-03-23T01:34:47;22.98;;;8.68;;
52668;SDS011;76842;52.786;6.892;2024-03-23T01:38:08;29.23;;;8.20;;
52668;SDS011;76842;52.786;6.892;2024-03-23T01:41:28;22.13;;;8.20;;
52668;SDS011;76842;52.786;6.892;2024-03-23T01:44:49;32.55;;;8.10;;
52668;SDS011;76842;52.786;6.892;2024-03-23T01:48:10;29.73;;;8.35;;
52668;SDS011;76842;52.786;6.892;2024-03-23T01:51:32;27.27;;;8.40;;
52668;SDS011;76842;52.786;6.892;2024-03-23T01:54:54;24.40;;;8.20;;
52668;SDS011;76842;52.786;6.892;2024-03-23T01:58:14;24.98;;;6.60;;
52668;SDS011;76842;52.786;6.892;2024-03-23T02:01:35;23.92;;;7.57;;
52668;SDS011;76842;52.786;6.892;2024-03-23T02:04:56;22.23;;;7.60;;
52668;SDS011;76842;52.786;6.892;2024-03-23T02:08:17;24.60;;;7.97;;
52668;SDS011;76842;52.786;6.892;2024-03-23T02:11:40;21.63;;;8.43;;
52668;SDS011;76842;52.786;6.892;2024-03-23T02:15:01;29.05;;;7.90;;
52668;SDS011;76842;52.786;6.892;2024-03-23T02:18:21;21.85;;;9.00;;
52668;SDS011;76842;52.786;6.892;2024-03-23T02:21:42;21.55;;;7.35;;
52668;SDS011;76842;52.786;6.892;2024-03-23T02:25:04;22.75;;;8.43;;
52668;SDS011;76842;52.786;6.892;2024-03-23T02:28:25;27.70;;;7.72;;
52668;SDS011;76842;52.786;6.892;2024-03-23T02:31:45;24.00;;;7.93;;
52668;SDS011;76842;52.786;6.892;2024-03-23T02:35:06;19.63;;;8.88;;
52668;SDS011;76842;52.786;6.892;2024-03-23T02:38:27;29.52;;;8.38;;
52668;SDS011;76842;52.786;6.892;2024-03-23T02:41:47;16.40;;;8.00;;
52668;SDS011;76842;52.786;6.892;2024-03-23T02:45:08;28.75;;;7.60;;
52668;SDS011;76842;52.786;6.892;2024-03-23T02:48:29;17.98;;;7.97;;
52668;SDS011;76842;52.786;6.892;2024-03-23T02:51:50;20.05;;;8.00;;
52668;SDS011;76842;52.786;6.892;2024-03-23T02:55:10;22.83;;;8.50;;
52668;SDS011;76842;52.786;6.892;2024-03-23T02:58:31;32.22;;;8.52;;
52668;SDS011;76842;52.786;6.892;2024-03-23T03:01:52;21.20;;;9.25;;
52668;SDS011;76842;52.786;6.892;2024-03-23T03:05:12;27.17;;;7.32;;
52668;SDS011;76842;52.786;6.892;2024-03-23T03:08:34;31.05;;;7.97;;
52668;SDS011;76842;52.786;6.892;2024-03-23T03:11:54;20.27;;;8.43;;
52668;SDS011;76842;52.786;6.892;2024-03-23T03:15:15;22.33;;;8.35;;
52668;SDS011;76842;52.786;6.892;2024-03-23T03:18:35;14.35;;;8.68;;
52668;SDS011;76842;52.786;6.892;2024-03-23T03:21:56;24.05;;;8.98;;
52668;SDS011;76842;52.786;6.892;2024-03-23T03:25:17;18.70;;;8.55;;
52668;SDS011;76842;52.786;6.892;2024-03-23T03:28:37;30.70;;;8.30;;
52668;SDS011;76842;52.786;6.892;2024-03-23T03:31:58;24.17;;;8.65;;
52668;SDS011;76842;52.786;6.892;2024-03-23T03:35:19;24.23;;;8.73;;
52668;SDS011;76842;52.786;6.892;2024-03-23T03:38:40;18.80;;;8.15;;
52668;SDS011;76842;52.786;6.892;2024-03-23T03:42:00;20.85;;;8.13;;
52668;SDS011;76842;52.786;6.892;2024-03-23T03:45:24;23.17;;;8.75;;
52668;SDS011;76842;52.786;6.892;2024-03-23T03:48:44;27.52;;;8.40;;
52668;SDS011;76842;52.786;6.892;2024-03-23T03:52:06;21.85;;;8.77;;
52668;SDS011;76842;52.786;6.892;2024-03-23T03:55:27;21.70;;;9.57;;
52668;SDS011;76842;52.786;6.892;2024-03-23T03:58:48;24.20;;;8.80;;
52668;SDS011;76842;52.786;6.892;2024-03-23T04:02:09;22.10;;;10.13;;
52668;SDS011;76842;52.786;6.892;2024-03-23T04:05:29;19.05;;;8.57;;
52668;SDS011;76842;52.786;6.892;2024-03-23T04:08:50;26.42;;;9.40;;
52668;SDS011;76842;52.786;6.892;2024-03-23T04:12:11;20.67;;;8.70;;
52668;SDS011;76842;52.786;6.892;2024-03-23T04:15:31;22.52;;;9.50;;
52668;SDS011;76842;52.786;6.892;2024-03-23T04:18:52;24.90;;;8.27;;
52668;SDS011;76842;52.786;6.892;2024-03-23T04:22:13;22.50;;;9.02;;
52668;SDS011;76842;52.786;6.892;2024-03-23T04:25:33;32.00;;;8.95;;
52668;SDS011;76842;52.786;6.892;2024-03-23T04:28:54;20.02;;;8.93;;
52668;SDS011;76842;52.786;6.892;2024-03-23T04:32:15;28.02;;;9.73;;
52668;SDS011;76842;52.786;6.892;2024-03-23T04:35:36;22.90;;;8.73;;
52668;SDS011;76842;52.786;6.892;2024-03-23T04:38:58;24.77;;;8.23;;
52668;SDS011;76842;52.786;6.892;2024-03-23T04:42:19;25.27;;;10.37;;
52668;SDS011;76842;52.786;6.892;2024-03-23T04:45:40;19.88;;;9.00;;
52668;SDS011;76842;52.786;6.892;2024-03-23T04:49:01;21.67;;;8.80;;
52668;SDS011;76842;52.786;6.892;2024-03-23T04:52:24;20.90;;;8.45;;
52668;SDS011;76842;52.786;6.892;2024-03-23T04:55:45;22.67;;;8.57;;
52668;SDS011;76842;52.786;6.892;2024-03-23T04:59:05;26.77;;;9.23;;
52668;SDS011;76842;52.786;6.892;2024-03-23T05:02:26;23.20;;;8.43;;
52668;SDS011;76842;52.786;6.892;2024-03-23T05:05:50;26.60;;;10.18;;
52668;SDS011;76842;52.786;6.892;2024-03-23T05:09:11;25.23;;;9.63;;
52668;SDS011;76842;52.786;6.892;2024-03-23T05:12:31;21.95;;;8.27;;
52668;SDS011;76842;52.786;6.892;2024-03-23T05:15:53;23.55;;;8.40;;
52668;SDS011;76842;52.786;6.892;2024-03-23T05:19:14;22.52;;;10.07;;
52668;SDS011;76842;52.786;6.892;2024-03-23T05:22:38;19.92;;;8.73;;
52668;SDS011;76842;52.786;6.892;2024-03-23T05:25:59;18.75;;;8.57;;
52668;SDS011;76842;52.786;6.892;2024-03-23T05:29:20;24.55;;;9.38;;
52668;SDS011;76842;52.786;6.892;2024-03-23T05:32:41;17.10;;;8.02;;
52668;SDS011;76842;52.786;6.892;2024-03-23T05:36:02;23.33;;;8.05;;
52668;SDS011;76842;52.786;6.892;2024-03-23T05:39:23;17.42;;;7.95;;
52668;SDS011;76842;52.786;6.892;2024-03-23T05:42:44;24.58;;;8.88;;
52668;SDS011;76842;52.786;6.892;2024-03-23T05:46:05;21.88;;;8.75;;
52668;SDS011;76842;52.786;6.892;2024-03-23T05:49:26;25.08;;;9.00;;
52668;SDS011;76842;52.786;6.892;2024-03-23T05:52:46;26.02;;;9.88;;
52668;SDS011;76842;52.786;6.892;2024-03-23T05:56:07;29.35;;;10.15;;
52668;SDS011;76842;52.786;6.892;2024-03-23T05:59:28;27.45;;;8.18;;
52668;SDS011;76842;52.786;6.892;2024-03-23T06:02:48;23.38;;;9.35;;
52668;SDS011;76842;52.786;6.892;2024-03-23T06:06:10;21.33;;;8.57;;
52668;SDS011;76842;52.786;6.892;2024-03-23T06:12:53;15.82;;;7.40;;
52668;SDS011;76842;52.786;6.892;2024-03-23T06:16:14;23.35;;;8.20;;
52668;SDS011;76842;52.786;6.892;2024-03-23T06:19:35;19.08;;;6.78;;
52668;SDS011;76842;52.786;6.892;2024-03-23T06:22:55;26.60;;;7.65;;
52668;SDS011;76842;52.786;6.892;2024-03-23T06:26:17;20.90;;;7.72;;
52668;SDS011;76842;52.786;6.892;2024-03-23T06:29:39;17.00;;;6.93;;
52668;SDS011;76842;52.786;6.892;2024-03-23T06:32:59;36.15;;;9.30;;
52668;SDS011;76842;52.786;6.892;2024-03-23T06:36:21;19.92;;;9.02;;
52668;SDS011;76842;52.786;6.892;2024-03-23T06:39:41;16.25;;;7.57;;
52668;SDS011;76842;52.786;6.892;2024-03-23T06:43:02;25.92;;;8.45;;
52668;SDS011;76842;52.786;6.892;2024-03-23T06:46:23;18.02;;;7.25;;
52668;SDS011;76842;52.786;6.892;2024-03-23T06:49:43;15.32;;;6.35;;
52668;SDS011;76842;52.786;6.892;2024-03-23T06:53:04;14.27;;;6.40;;
52668;SDS011;76842;52.786;6.892;2024-03-23T06:56:25;9.00;;;3.38;;
52668;SDS011;76842;52.786;6.892;2024-03-23T06:59:46;10.40;;;3.58;;
52668;SDS011;76842;52.786;6.892;2024-03-23T07:03:06;8.45;;;4.47;;
52668;SDS011;76842;52.786;6.892;2024-03-23T07:06:27;9.05;;;4.63;;
52668;SDS011;76842;52.786;6.892;2024-03-23T07:09:48;10.65;;;4.50;;
52668;SDS011;76842;52.786;6.892;2024-03-23T07:13:09;8.90;;;4.03;;
52668;SDS011;76842;52.786;6.892;2024-03-23T07:16:30;10.20;;;4.20;;
52668;SDS011;76842;52.786;6.892;2024-03-23T07:19:51;8.95;;;3.75;;
52668;SDS011;76842;52.786;6.892;2024-03-23T07:23:12;9.82;;;4.00;;
52668;SDS011;76842;52.786;6.892;2024-03-23T07:26:32;9.40;;;3.58;;
52668;SDS011;76842;52.786;6.892;2024-03-23T07:29:53;6.30;;;3.20;;
52668;SDS011;76842;52.786;6.892;2024-03-23T07:33:15;9.05;;;3.85;;
52668;SDS011;76842;52.786;6.892;2024-03-23T07:36:35;12.90;;;3.20;;
52668;SDS011;76842;52.786;6.892;2024-03-23T07:39:56;10.20;;;3.85;;
52668;SDS011;76842;52.786;6.892;2024-03-23T07:43:17;7.85;;;3.20;;
52668;SDS011;76842;52.786;6.892;2024-03-23T07:46:38;14.18;;;3.78;;
52668;SDS011;76842;52.786;6.892;2024-03-23T07:49:59;4.53;;;2.88;;
52668;SDS011;76842;52.786;6.892;2024-03-23T07:53:19;13.80;;;3.88;;
52668;SDS011;76842;52.786;6.892;2024-03-23T07:56:40;7.47;;;3.55;;
52668;SDS011;76842;52.786;6.892;2024-03-23T08:00:01;8.23;;;3.00;;
52668;SDS011;76842;52.786;6.892;2024-03-23T08:03:21;6.60;;;3.60;;
52668;SDS011;76842;52.786;6.892;2024-03-23T08:06:42;13.80;;;4.53;;
52668;SDS011;76842;52.786;6.892;2024-03-23T08:10:03;8.40;;;3.85;;
52668;SDS011;76842;52.786;6.892;2024-03-23T08:13:24;13.02;;;5.63;;
52668;SDS011;76842;52.786;6.892;2024-03-23T08:16:46;14.95;;;4.88;;
52668;SDS011;76842;52.786;6.892;2024-03-23T08:20:09;8.40;;;3.25;;
52668;SDS011;76842;52.786;6.892;2024-03-23T08:23:32;8.48;;;2.80;;
52668;SDS011;76842;52.786;6.892;2024-03-23T08:30:14;5.50;;;2.72;;
52668;SDS011;76842;52.786;6.892;2024-03-23T08:33:35;12.27;;;3.53;;
52668;SDS011;76842;52.786;6.892;2024-03-23T08:36:56;7.93;;;3.10;;
52668;SDS011;76842;52.786;6.892;2024-03-23T08:40:17;9.85;;;3.15;;
52668;SDS011;76842;52.786;6.892;2024-03-23T08:43:41;5.97;;;2.85;;
52668;SDS011;76842;52.786;6.892;2024-03-23T08:47:02;7.43;;;2.72;;
52668;SDS011;76842;52.786;6.892;2024-03-23T08:50:23;9.55;;;3.58;;
52668;SDS011;76842;52.786;6.892;2024-03-23T08:53:44;6.75;;;2.90;;
52668;SDS011;76842;52.786;6.892;2024-03-23T08:57:05;7.70;;;2.47;;
52668;SDS011;76842;52.786;6.892;2024-03-23T09:00:27;11.38;;;3.70;;
52668;SDS011;76842;52.786;6.892;2024-03-23T09:03:47;14.40;;;3.45;;
52668;SDS011;76842;52.786;6.892;2024-03-23T09:07:08;8.43;;;2.78;;
52668;SDS011;76842;52.786;6.892;2024-03-23T09:10:29;6.63;;;2.50;;
52668;SDS011;76842;52.786;6.892;2024-03-23T09:13:49;9.38;;;2.85;;
52668;SDS011;76842;52.786;6.892;2024-03-23T09:17:10;9.60;;;2.95;;
52668;SDS011;76842;52.786;6.892;2024-03-23T09:20:34;8.43;;;2.88;;
52668;SDS011;76842;52.786;6.892;2024-03-23T09:23:55;4.97;;;2.33;;
52668;SDS011;76842;52.786;6.892;2024-03-23T09:27:15;7.28;;;2.60;;
52668;SDS011;76842;52.786;6.892;2024-03-23T09:30:36;7.85;;;3.13;;
52668;SDS011;76842;52.786;6.892;2024-03-23T09:34:03;6.10;;;2.80;;
52668;SDS011;76842;52.786;6.892;2024-03-23T09:37:24;8.02;;;3.13;;
52668;SDS011;76842;52.786;6.892;2024-03-23T09:40:45;4.88;;;2.50;;
52668;SDS011;76842;52.786;6.892;2024-03-23T09:44:13;4.47;;;2.30;;
52668;SDS011;76842;52.786;6.892;2024-03-23T09:47:33;10.88;;;2.25;;
52668;SDS011;76842;52.786;6.892;2024-03-23T09:50:54;7.57;;;3.08;;
52668;SDS011;76842;52.786;6.892;2024-03-23T09:54:15;8.32;;;3.47;;
52668;SDS011;76842;52.786;6.892;2024-03-23T09:57:36;6.30;;;2.80;;
52668;SDS011;76842;52.786;6.892;2024-03-23T10:00:57;11.93;;;3.55;;
52668;SDS011;76842;52.786;6.892;2024-03-23T10:08:16;5.40;;;2.60;;
52668;SDS011;76842;52.786;6.892;2024-03-23T10:11:39;10.13;;;3.13;;
52668;SDS011;76842;52.786;6.892;2024-03-23T10:15:00;9.60;;;3.28;;
52668;SDS011;76842;52.786;6.892;2024-03-23T10:18:20;7.38;;;2.70;;
52668;SDS011;76842;52.786;6.892;2024-03-23T10:21:51;9.00;;;3.88;;
52668;SDS011;76842;52.786;6.892;2024-03-23T10:25:12;7.50;;;2.55;;
52668;SDS011;76842;52.786;6.892;2024-03-23T10:28:33;6.97;;;2.45;;
52668;SDS011;76842;52.786;6.892;2024-03-23T10:31:55;8.07;;;2.90;;
52668;SDS011;76842;52.786;6.892;2024-03-23T10:35:31;8.23;;;2.88;;
52668;SDS011;76842;52.786;6.892;2024-03-23T10:38:52;6.53;;;2.50;;
52668;SDS011;76842;52.786;6.892;2024-03-23T10:42:14;3.43;;;2.10;;
52668;SDS011;76842;52.786;6.892;2024-03-23T10:45:36;4.38;;;1.92;;
52668;SDS011;76842;52.786;6.892;2024-03-23T10:48:57;11.20;;;3.10;;
52668;SDS011;76842;52.786;6.892;2024-03-23T10:52:17;5.63;;;2.20;;
52668;SDS011;76842;52.786;6.892;2024-03-23T10:55:38;5.68;;;2.38;;
52668;SDS011;76842;52.786;6.892;2024-03-23T10:59:01;6.22;;;2.22;;
52668;SDS011;76842;52.786;6.892;2024-03-23T11:02:24;9.45;;;4.03;;
52668;SDS011;76842;52.786;6.892;2024-03-23T11:05:47;7.85;;;2.95;;
52668;SDS011;76842;52.786;6.892;2024-03-23T11:16:43;7.97;;;2.78;;
52668;SDS011;76842;52.786;6.892;2024-03-23T11:20:04;5.65;;;2.45;;
52668;SDS011;76842;52.786;6.892;2024-03-23T11:23:26;8.07;;;2.85;;
52668;SDS011;76842;52.786;6.892;2024-03-23T11:26:48;8.80;;;3.10;;
52668;SDS011;76842;52.786;6.892;2024-03-23T11:30:09;10.55;;;2.47;;
52668;SDS011;76842;52.786;6.892;2024-03-23T11:33:35;7.50;;;2.75;;
52668;SDS011;76842;52.786;6.892;2024-03-23T11:37:03;4.20;;;2.88;;
52668;SDS011;76842;52.786;6.892;2024-03-23T11:40:25;9.02;;;2.53;;
52668;SDS011;76842;52.786;6.892;2024-03-23T11:43:45;8.40;;;3.35;;
52668;SDS011;76842;52.786;6.892;2024-03-23T11:47:09;7.97;;;3.40;;
52668;SDS011;76842;52.786;6.892;2024-03-23T11:50:30;8.38;;;2.45;;
52668;SDS011;76842;52.786;6.892;2024-03-23T11:53:51;10.25;;;2.28;;
52668;SDS011;76842;52.786;6.892;2024-03-23T11:57:12;6.97;;;2.38;;
52668;SDS011;76842;52.786;6.892;2024-03-23T12:00:33;8.02;;;2.63;;
52668;SDS011;76842;52.786;6.892;2024-03-23T12:03:54;11.30;;;2.85;;
52668;SDS011;76842;52.786;6.892;2024-03-23T12:07:18;8.02;;;2.60;;
52668;SDS011;76842;52.786;6.892;2024-03-23T12:10:52;8.40;;;2.35;;
52668;SDS011;76842;52.786;6.892;2024-03-23T12:14:24;6.03;;;1.98;;
52668;SDS011;76842;52.786;6.892;2024-03-23T12:17:45;4.57;;;2.33;;
52668;SDS011;76842;52.786;6.892;2024-03-23T12:21:05;9.10;;;2.53;;
52668;SDS011;76842;52.786;6.892;2024-03-23T12:24:27;5.15;;;2.78;;
52668;SDS011;76842;52.786;6.892;2024-03-23T12:27:47;14.07;;;2.85;;
52668;SDS011;76842;52.786;6.892;2024-03-23T12:31:08;8.50;;;2.60;;
52668;SDS011;76842;52.786;6.892;2024-03-23T12:34:30;7.45;;;2.58;;
52668;SDS011;76842;52.786;6.892;2024-03-23T12:37:50;7.55;;;2.47;;
52668;SDS011;76842;52.786;6.892;2024-03-23T12:41:11;5.60;;;2.88;;
52668;SDS011;76842;52.786;6.892;2024-03-23T12:44:32;10.85;;;3.08;;
52668;SDS011;76842;52.786;6.892;2024-03-23T12:47:52;9.10;;;3.60;;
52668;SDS011;76842;52.786;6.892;2024-03-23T12:51:14;5.20;;;3.25;;
52668;SDS011;76842;52.786;6.892;2024-03-23T12:54:34;7.80;;;2.90;;
52668;SDS011;76842;52.786;6.892;2024-03-23T12:57:55;6.22;;;2.92;;
52668;SDS011;76842;52.786;6.892;2024-03-23T13:01:19;7.35;;;3.55;;
52668;SDS011;76842;52.786;6.892;2024-03-23T13:04:40;13.73;;;4.18;;
52668;SDS011;76842;52.786;6.892;2024-03-23T13:08:01;9.02;;;3.30;;
52668;SDS011;76842;52.786;6.892;2024-03-23T13:11:23;11.68;;;3.97;;
52668;SDS011;76842;52.786;6.892;2024-03-23T13:14:44;11.75;;;3.80;;
52668;SDS011;76842;52.786;6.892;2024-03-23T13:18:05;5.45;;;2.38;;
52668;SDS011;76842;52.786;6.892;2024-03-23T13:21:26;8.93;;;2.80;;
52668;SDS011;76842;52.786;6.892;2024-03-23T13:24:47;6.82;;;2.63;;
52668;SDS011;76842;52.786;6.892;2024-03-23T13:28:07;7.25;;;2.10;;
52668;SDS011;76842;52.786;6.892;2024-03-23T13:31:29;6.78;;;2.50;;
52668;SDS011;76842;52.786;6.892;2024-03-23T13:34:50;7.07;;;2.55;;
52668;SDS011;76842;52.786;6.892;2024-03-23T13:38:10;6.18;;;2.78;;
52668;SDS011;76842;52.786;6.892;2024-03-23T13:41:31;8.18;;;3.00;;
52668;SDS011;76842;52.786;6.892;2024-03-23T13:44:52;5.47;;;2.30;;
52668;SDS011;76842;52.786;6.892;2024-03-23T13:48:13;6.60;;;2.60;;
52668;SDS011;76842;52.786;6.892;2024-03-23T13:51:33;7.88;;;2.63;;
52668;SDS011;76842;52.786;6.892;2024-03-23T13:54:54;7.22;;;3.47;;
52668;SDS011;76842;52.786;6.892;2024-03-23T13:58:16;7.23;;;2.67;;
52668;SDS011;76842;52.786;6.892;2024-03-23T14:01:37;10.05;;;2.45;;
52668;SDS011;76842;52.786;6.892;2024-03-23T14:04:58;8.38;;;3.25;;
52668;SDS011;76842;52.786;6.892;2024-03-23T14:08:18;6.60;;;2.65;;
52668;SDS011;76842;52.786;6.892;2024-03-23T14:11:41;6.22;;;2.85;;
52668;SDS011;76842;52.786;6.892;2024-03-23T14:15:06;7.03;;;3.03;;
52668;SDS011;76842;52.786;6.892;2024-03-23T14:18:27;9.55;;;4.38;;
52668;SDS011;76842;52.786;6.892;2024-03-23T14:21:48;9.63;;;3.05;;
52668;SDS011;76842;52.786;6.892;2024-03-23T14:25:09;5.60;;;2.03;;
52668;SDS011;76842;52.786;6.892;2024-03-23T14:28:31;3.80;;;2.03;;
52668;SDS011;76842;52.786;6.892;2024-03-23T14:31:52;5.85;;;2.30;;
52668;SDS011;76842;52.786;6.892;2024-03-23T14:35:12;9.65;;;3.10;;
52668;SDS011;76842;52.786;6.892;2024-03-23T14:38:33;6.65;;;2.90;;
52668;SDS011;76842;52.786;6.892;2024-03-23T14:41:54;8.48;;;2.30;;
52668;SDS011;76842;52.786;6.892;2024-03-23T14:45:14;10.07;;;2.90;;
52668;SDS011;76842;52.786;6.892;2024-03-23T14:48:35;7.70;;;3.63;;
52668;SDS011;76842;52.786;6.892;2024-03-23T14:51:56;6.75;;;2.50;;
52668;SDS011;76842;52.786;6.892;2024-03-23T14:55:17;7.57;;;2.60;;
52668;SDS011;76842;52.786;6.892;2024-03-23T14:58:39;7.03;;;3.15;;
52668;SDS011;76842;52.786;6.892;2024-03-23T15:02:00;7.95;;;2.72;;
52668;SDS011;76842;52.786;6.892;2024-03-23T15:05:21;8.43;;;2.85;;
52668;SDS011;76842;52.786;6.892;2024-03-23T15:08:41;7.47;;;2.40;;
52668;SDS011;76842;52.786;6.892;2024-03-23T15:12:02;5.35;;;2.03;;
52668;SDS011;76842;52.786;6.892;2024-03-23T15:15:23;3.95;;;2.10;;
52668;SDS011;76842;52.786;6.892;2024-03-23T15:18:43;6.78;;;1.77;;
52668;SDS011;76842;52.786;6.892;2024-03-23T15:22:04;11.05;;;2.30;;
52668;SDS011;76842;52.786;6.892;2024-03-23T15:25:25;7.22;;;2.60;;
52668;SDS011;76842;52.786;6.892;2024-03-23T15:28:48;13.75;;;3.05;;
52668;SDS011;76842;52.786;6.892;2024-03-23T15:35:39;9.82;;;3.13;;
52668;SDS011;76842;52.786;6.892;2024-03-23T15:39:00;9.20;;;2.72;;
52668;SDS011;76842;52.786;6.892;2024-03-23T15:42:20;11.85;;;2.42;;
52668;SDS011;76842;52.786;6.892;2024-03-23T15:45:42;6.63;;;3.05;;
52668;SDS011;76842;52.786;6.892;2024-03-23T15:49:03;11.57;;;2.75;;
52668;SDS011;76842;52.786;6.892;2024-03-23T15:52:24;10.00;;;3.42;;
52668;SDS011;76842;52.786;6.892;2024-03-23T15:55:45;9.73;;;2.80;;
52668;SDS011;76842;52.786;6.892;2024-03-23T15:59:12;10.98;;;4.07;;
52668;SDS011;76842;52.786;6.892;2024-03-23T16:02:33;10.73;;;2.85;;
52668;SDS011;76842;52.786;6.892;2024-03-23T16:05:54;8.88;;;3.25;;
52668;SDS011;76842;52.786;6.892;2024-03-23T16:09:16;6.93;;;2.75;;
52668;SDS011;76842;52.786;6.892;2024-03-23T16:12:38;8.07;;;2.67;;
52668;SDS011;76842;52.786;6.892;2024-03-23T16:16:01;5.45;;;2.78;;
52668;SDS011;76842;52.786;6.892;2024-03-23T16:19:27;8.70;;;2.60;;
52668;SDS011;76842;52.786;6.892;2024-03-23T16:22:47;6.72;;;2.70;;
52668;SDS011;76842;52.786;6.892;2024-03-23T16:26:08;7.00;;;3.20;;
52668;SDS011;76842;52.786;6.892;2024-03-23T16:29:30;8.80;;;3.15;;
52668;SDS011;76842;52.786;6.892;2024-03-23T16:32:51;7.28;;;2.05;;
52668;SDS011;76842;52.786;6.892;2024-03-23T16:36:11;6.28;;;2.50;;
52668;SDS011;76842;52.786;6.892;2024-03-23T16:39:32;5.13;;;2.05;;
52668;SDS011;76842;52.786;6.892;2024-03-23T16:42:53;6.13;;;2.80;;
52668;SDS011;76842;52.786;6.892;2024-03-23T16:46:14;7.28;;;2.90;;
52668;SDS011;76842;52.786;6.892;2024-03-23T16:49:35;4.88;;;1.80;;
52668;SDS011;76842;52.786;6.892;2024-03-23T16:52:56;8.80;;;3.25;;
52668;SDS011;76842;52.786;6.892;2024-03-23T16:56:17;5.18;;;2.33;;
52668;SDS011;76842;52.786;6.892;2024-03-23T16:59:38;7.90;;;2.25;;
52668;SDS011;76842;52.786;6.892;2024-03-23T17:02:58;4.97;;;2.00;;
52668;SDS011;76842;52.786;6.892;2024-03-23T17:06:19;4.00;;;2.13;;
52668;SDS011;76842;52.786;6.892;2024-03-23T17:09:47;6.43;;;2.80;;
52668;SDS011;76842;52.786;6.892;2024-03-23T17:13:08;5.78;;;2.83;;
52668;SDS011;76842;52.786;6.892;2024-03-23T17:16:29;4.35;;;2.40;;
52668;SDS011;76842;52.786;6.892;2024-03-23T17:19:58;5.63;;;2.50;;
52668;SDS011;76842;52.786;6.892;2024-03-23T17:23:23;5.70;;;3.92;;
52668;SDS011;76842;52.786;6.892;2024-03-23T17:26:48;4.80;;;2.47;;
52668;SDS011;76842;52.786;6.892;2024-03-23T17:30:08;4.57;;;2.40;;
52668;SDS011;76842;52.786;6.892;2024-03-23T17:33:30;8.55;;;2.70;;
52668;SDS011;76842;52.786;6.892;2024-03-23T17:36:51;5.25;;;2.47;;
52668;SDS011;76842;52.786;6.892;2024-03-23T17:40:11;9.15;;;2.60;;
52668;SDS011;76842;52.786;6.892;2024-03-23T17:43:32;8.95;;;3.13;;
52668;SDS011;76842;52.786;6.892;2024-03-23T17:46:53;6.20;;;3.15;;
52668;SDS011;76842;52.786;6.892;2024-03-23T17:50:14;8.10;;;3.40;;
52668;SDS011;76842;52.786;6.892;2024-03-23T17:53:38;5.63;;;3.13;;
52668;SDS011;76842;52.786;6.892;2024-03-23T17:56:59;7.53;;;2.53;;
52668;SDS011;76842;52.786;6.892;2024-03-23T18:00:20;5.03;;;2.58;;
52668;SDS011;76842;52.786;6.892;2024-03-23T18:03:41;7.80;;;2.80;;
52668;SDS011;76842;52.786;6.892;2024-03-23T18:07:02;5.05;;;2.25;;
52668;SDS011;76842;52.786;6.892;2024-03-23T18:10:24;7.47;;;2.90;;
52668;SDS011;76842;52.786;6.892;2024-03-23T18:13:44;5.18;;;2.30;;
52668;SDS011;76842;52.786;6.892;2024-03-23T18:17:05;5.22;;;2.50;;
52668;SDS011;76842;52.786;6.892;2024-03-23T18:20:26;4.18;;;2.08;;
52668;SDS011;76842;52.786;6.892;2024-03-23T18:23:46;8.20;;;2.33;;
52668;SDS011;76842;52.786;6.892;2024-03-23T18:27:08;7.15;;;2.15;;
52668;SDS011;76842;52.786;6.892;2024-03-23T18:30:33;7.15;;;2.42;;
52668;SDS011;76842;52.786;6.892;2024-03-23T18:33:53;9.65;;;2.53;;
52668;SDS011;76842;52.786;6.892;2024-03-23T18:37:16;4.13;;;2.50;;
52668;SDS011;76842;52.786;6.892;2024-03-23T18:40:37;6.85;;;2.60;;
52668;SDS011;76842;52.786;6.892;2024-03-23T18:43:57;6.18;;;2.13;;
52668;SDS011;76842;52.786;6.892;2024-03-23T18:47:18;5.57;;;2.25;;
52668;SDS011;76842;52.786;6.892;2024-03-23T18:50:39;3.47;;;1.90;;
52668;SDS011;76842;52.786;6.892;2024-03-23T18:54:01;4.80;;;2.85;;
52668;SDS011;76842;52.786;6.892;2024-03-23T18:57:21;6.85;;;2.67;;
52668;SDS011;76842;52.786;6.892;2024-03-23T19:00:42;5.20;;;2.88;;
52668;SDS011;76842;52.786;6.892;2024-03-23T19:04:03;6.25;;;2.60;;
52668;SDS011;76842;52.786;6.892;2024-03-23T19:07:24;5.93;;;3.10;;
52668;SDS011;76842;52.786;6.892;2024-03-23T19:14:12;6.68;;;3.00;;
52668;SDS011;76842;52.786;6.892;2024-03-23T19:17:33;6.20;;;2.80;;
52668;SDS011;76842;52.786;6.892;2024-03-23T19:20:54;8.23;;;3.38;;
52668;SDS011;76842;52.786;6.892;2024-03-23T19:24:15;6.70;;;3.10;;
52668;SDS011;76842;52.786;6.892;2024-03-23T19:27:36;7.78;;;3.38;;
52668;SDS011;76842;52.786;6.892;2024-03-23T19:31:01;11.48;;;4.13;;
52668;SDS011;76842;52.786;6.892;2024-03-23T19:34:23;9.02;;;3.30;;
52668;SDS011;76842;52.786;6.892;2024-03-23T19:37:43;5.93;;;2.63;;
52668;SDS011;76842;52.786;6.892;2024-03-23T19:41:06;9.98;;;3.70;;
52668;SDS011;76842;52.786;6.892;2024-03-23T19:44:27;7.43;;;3.20;;
52668;SDS011;76842;52.786;6.892;2024-03-23T19:47:48;8.30;;;3.45;;
52668;SDS011;76842;52.786;6.892;2024-03-23T19:51:08;5.03;;;3.13;;
52668;SDS011;76842;52.786;6.892;2024-03-23T19:54:29;5.18;;;3.70;;
52668;SDS011;76842;52.786;6.892;2024-03-23T19:57:50;4.93;;;3.28;;
52668;SDS011;76842;52.786;6.892;2024-03-23T20:01:14;7.97;;;4.10;;
52668;SDS011;76842;52.786;6.892;2024-03-23T20:04:36;5.63;;;3.25;;
52668;SDS011;76842;52.786;6.892;2024-03-23T20:07:56;5.35;;;3.15;;
52668;SDS011;76842;52.786;6.892;2024-03-23T20:11:17;11.13;;;4.75;;
52668;SDS011;76842;52.786;6.892;2024-03-23T20:14:38;6.63;;;3.38;;
52668;SDS011;76842;52.786;6.892;2024-03-23T20:17:59;9.57;;;3.20;;
52668;SDS011;76842;52.786;6.892;2024-03-23T20:21:22;3.20;;;2.35;;
52668;SDS011;76842;52.786;6.892;2024-03-23T20:24:42;3.72;;;2.67;;
52668;SDS011;76842;52.786;6.892;2024-03-23T20:28:03;7.15;;;2.83;;
52668;SDS011;76842;52.786;6.892;2024-03-23T20:31:24;9.13;;;3.58;;
52668;SDS011;76842;52.786;6.892;2024-03-23T20:34:44;11.07;;;3.33;;
52668;SDS011;76842;52.786;6.892;2024-03-23T20:38:05;4.57;;;2.60;;
52668;SDS011;76842;52.786;6.892;2024-03-23T20:41:26;3.28;;;2.50;;
52668;SDS011;76842;52.786;6.892;2024-03-23T20:44:47;3.97;;;2.28;;
52668;SDS011;76842;52.786;6.892;2024-03-23T20:48:08;5.45;;;2.95;;
52668;SDS011;76842;52.786;6.892;2024-03-23T20:51:29;5.07;;;2.95;;
52668;SDS011;76842;52.786;6.892;2024-03-23T20:54:49;7.55;;;3.20;;
52668;SDS011;76842;52.786;6.892;2024-03-23T20:58:10;6.57;;;3.50;;
52668;SDS011;76842;52.786;6.892;2024-03-23T21:01:31;8.00;;;3.05;;
52668;SDS011;76842;52.786;6.892;2024-03-23T21:04:53;6.80;;;3.88;;
52668;SDS011;76842;52.786;6.892;2024-03-23T21:08:13;4.47;;;2.72;;
52668;SDS011;76842;52.786;6.892;2024-03-23T21:11:34;3.72;;;2.60;;
52668;SDS011;76842;52.786;6.892;2024-03-23T21:14:55;3.50;;;2.67;;
52668;SDS011;76842;52.786;6.892;2024-03-23T21:18:15;4.38;;;2.35;;
52668;SDS011;76842;52.786;6.892;2024-03-23T21:21:36;4.60;;;2.20;;